Time;durP1;ratioP1;P1;durP2;ratioP2;P2;SDS_P1;SDS_P2;PMS_P1;PMS_P2;Temp;Humidity;BMP_temperature;BMP_pressure;BME280_temperature;BME280_humidity;BME280_pressure;Samples;Min_cycle;Max_cycle;Signal;HPM_P1;HPM_P2
2021/03/26 00:02:23;;;;;;;9.33;7.07;;;13.30;54.20;;;;;;5070843;28;20688;-53
2021/03/26 00:04:50;;;;;;;9.90;8.00;;;13.30;54.10;;;;;;5073115;28;20636;-53
2021/03/26 00:07:17;;;;;;;7.30;6.07;;;13.30;54.00;;;;;;5075327;28;20752;-53
2021/03/26 00:09:44;;;;;;;8.60;7.70;;;13.30;54.20;;;;;;5074502;28;20660;-53
2021/03/26 00:12:12;;;;;;;9.00;7.10;;;13.30;54.30;;;;;;5074901;28;21055;-51
2021/03/26 00:14:40;;;;;;;8.80;7.50;;;13.20;54.60;;;;;;5074484;28;20667;-52
2021/03/26 00:17:07;;;;;;;10.33;7.47;;;13.20;54.80;;;;;;5077946;28;20660;-52
2021/03/26 00:19:33;;;;;;;9.87;7.73;;;13.20;54.90;;;;;;5089103;28;21038;-53
2021/03/26 00:22:00;;;;;;;10.90;6.90;;;13.20;54.90;;;;;;5094476;28;20688;-53
2021/03/26 00:24:27;;;;;;;10.97;7.40;;;13.30;55.00;;;;;;5095229;28;20624;-53
2021/03/26 00:26:54;;;;;;;11.30;7.90;;;13.30;55.10;;;;;;5094498;28;20620;-53
2021/03/26 00:29:21;;;;;;;10.13;7.20;;;13.20;55.20;;;;;;5083530;28;20694;-52
2021/03/26 00:31:48;;;;;;;6.83;6.17;;;13.20;55.40;;;;;;5072003;28;20659;-53
2021/03/26 00:34:15;;;;;;;6.70;6.10;;;13.10;55.50;;;;;;5090035;28;21257;-52
2021/03/26 00:36:42;;;;;;;10.70;7.13;;;13.10;55.70;;;;;;5092866;28;20652;-53
2021/03/26 00:39:09;;;;;;;6.90;6.07;;;12.90;56.00;;;;;;5092384;28;20691;-54
2021/03/26 00:41:36;;;;;;;8.20;7.30;;;12.80;56.40;;;;;;5092294;28;20662;-53
2021/03/26 00:44:03;;;;;;;7.63;6.83;;;12.80;56.60;;;;;;5092115;28;20660;-53
2021/03/26 00:46:29;;;;;;;11.30;8.50;;;12.70;57.10;;;;;;5080348;28;20656;-52
2021/03/26 00:48:57;;;;;;;11.43;7.10;;;12.60;57.40;;;;;;5091089;28;20678;-52
2021/03/26 00:51:24;;;;;;;9.80;7.43;;;12.60;57.70;;;;;;5094181;28;21008;-52
2021/03/26 00:53:51;;;;;;;10.00;7.47;;;12.60;57.90;;;;;;5094473;28;20622;-53
2021/03/26 00:56:17;;;;;;;10.23;7.60;;;12.60;58.10;;;;;;5094171;28;21271;-52
2021/03/26 00:58:44;;;;;;;11.30;7.33;;;12.60;58.30;;;;;;5092140;28;20675;-53
2021/03/26 01:01:11;;;;;;;8.03;7.20;;;12.60;58.40;;;;;;5094772;28;20615;-52
2021/03/26 01:03:38;;;;;;;9.03;6.80;;;12.60;58.50;;;;;;5094069;28;20691;-53
2021/03/26 01:06:07;;;;;;;8.47;6.87;;;12.60;58.60;;;;;;5094573;28;20672;-52
2021/03/26 01:08:33;;;;;;;9.13;8.10;;;12.50;58.70;;;;;;5093443;28;20794;-53
2021/03/26 01:11:02;;;;;;;12.60;8.63;;;12.50;58.70;;;;;;5093813;28;20660;-53
2021/03/26 01:13:29;;;;;;;9.50;6.57;;;12.50;58.90;;;;;;5090730;28;20657;-53
2021/03/26 01:15:56;;;;;;;11.20;7.30;;;12.40;58.90;;;;;;5076869;28;20646;-53
2021/03/26 01:18:25;;;;;;;8.43;7.40;;;12.40;59.10;;;;;;5086059;28;21110;-52
2021/03/26 01:20:52;;;;;;;11.83;8.53;;;12.30;59.20;;;;;;5093863;28;20659;-52
2021/03/26 01:23:20;;;;;;;9.13;7.73;;;12.30;59.30;;;;;;5093828;28;21282;-53
2021/03/26 01:25:46;;;;;;;10.97;7.87;;;12.30;59.50;;;;;;5093704;28;20705;-53
2021/03/26 01:28:18;;;;;;;8.97;7.97;;;12.30;59.50;;;;;;5093839;28;20663;-53
2021/03/26 01:30:47;;;;;;;13.73;8.43;;;12.30;59.60;;;;;;5083468;28;20617;-53
2021/03/26 01:33:14;;;;;;;10.87;8.40;;;12.30;59.60;;;;;;5082934;28;20665;-53
2021/03/26 01:35:40;;;;;;;8.53;6.97;;;12.30;59.70;;;;;;5093492;28;20670;-52
2021/03/26 01:38:07;;;;;;;11.10;7.33;;;12.30;59.80;;;;;;5092888;28;20692;-53
2021/03/26 01:40:40;;;;;;;10.37;7.67;;;12.20;60.00;;;;;;5093885;28;20670;-53
2021/03/26 01:43:08;;;;;;;8.93;7.90;;;12.30;60.20;;;;;;5093308;28;20691;-52
2021/03/26 01:45:35;;;;;;;8.57;7.67;;;12.30;60.30;;;;;;5093240;28;20620;-53
2021/03/26 01:48:03;;;;;;;9.33;7.83;;;12.30;60.20;;;;;;5085317;28;20676;-53
2021/03/26 01:50:30;;;;;;;9.33;7.63;;;12.30;60.30;;;;;;5108553;28;20628;-52
2021/03/26 01:52:57;;;;;;;13.37;8.27;;;12.30;60.60;;;;;;5093090;28;20697;-53
2021/03/26 01:55:26;;;;;;;9.80;7.33;;;12.40;60.70;;;;;;5093369;28;20620;-53
2021/03/26 01:57:54;;;;;;;9.03;7.60;;;12.40;60.60;;;;;;5093079;28;21257;-52
2021/03/26 02:00:26;;;;;;;8.30;6.93;;;12.40;61.30;;;;;;5091623;28;20656;-53
2021/03/26 02:02:53;;;;;;;9.23;6.17;;;12.30;60.40;;;;;;5076584;28;21289;-53
2021/03/26 02:05:23;;;;;;;7.60;6.87;;;12.40;60.50;;;;;;5092893;28;20651;-53
2021/03/26 02:07:50;;;;;;;8.33;7.00;;;12.30;60.70;;;;;;5092688;28;20680;-52
2021/03/26 02:10:16;;;;;;;10.43;8.70;;;12.30;61.00;;;;;;5093334;28;20650;-51
2021/03/26 02:12:43;;;;;;;10.80;7.97;;;12.30;61.30;;;;;;5092550;28;20656;-52
2021/03/26 02:15:16;;;;;;;8.77;7.30;;;12.30;61.50;;;;;;5092464;28;20661;-53
2021/03/26 02:17:43;;;;;;;7.43;6.73;;;12.40;61.50;;;;;;5086154;28;20677;-52
2021/03/26 02:20:18;;;;;;;14.87;9.07;;;12.40;61.40;;;;;;5085329;28;20640;-52
2021/03/26 02:22:45;;;;;;;10.63;8.70;;;12.40;61.40;;;;;;5072430;28;21295;-52
2021/03/26 02:25:14;;;;;;;8.90;7.27;;;12.50;61.40;;;;;;5072490;28;20661;-52
2021/03/26 02:27:40;;;;;;;10.50;7.67;;;12.40;61.30;;;;;;5072502;28;20645;-52
2021/03/26 02:30:08;;;;;;;14.80;10.10;;;12.40;61.30;;;;;;5084767;28;20652;-52
2021/03/26 02:32:36;;;;;;;13.70;9.20;;;12.50;61.40;;;;;;5092887;28;20648;-52
2021/03/26 02:35:15;;;;;;;12.30;9.03;;;12.50;61.40;;;;;;5090030;28;20989;-52
2021/03/26 02:37:43;;;;;;;14.03;7.80;;;12.50;61.50;;;;;;5072194;28;21203;-52
2021/03/26 02:40:15;;;;;;;10.83;8.90;;;12.40;61.70;;;;;;5072613;28;20648;-52
2021/03/26 02:42:42;;;;;;;10.37;7.70;;;12.40;61.80;;;;;;5072460;28;20685;-52
2021/03/26 02:45:12;;;;;;;13.47;9.13;;;12.40;61.70;;;;;;5094767;28;20620;-52
2021/03/26 02:47:40;;;;;;;11.47;8.30;;;12.40;62.00;;;;;;5096156;28;20632;-52
2021/03/26 02:50:09;;;;;;;11.93;9.60;;;12.40;62.00;;;;;;5093391;28;21164;-52
2021/03/26 02:52:39;;;;;;;14.70;9.67;;;12.50;62.10;;;;;;5088918;28;20693;-52
2021/03/26 02:55:10;;;;;;;13.10;9.30;;;12.50;62.00;;;;;;5092647;28;20639;-52
2021/03/26 02:57:41;;;;;;;11.83;9.70;;;12.50;62.20;;;;;;5085818;28;20663;-52
2021/03/26 03:00:12;;;;;;;11.97;10.27;;;12.40;62.10;;;;;;5072192;28;20662;-52
2021/03/26 03:02:39;;;;;;;15.60;9.13;;;12.40;62.60;;;;;;5072240;28;20707;-52
2021/03/26 03:05:09;;;;;;;15.10;8.50;;;12.40;62.80;;;;;;5072669;28;20634;-52
2021/03/26 03:07:37;;;;;;;12.67;9.73;;;12.40;62.70;;;;;;5071432;28;20660;-52
2021/03/26 03:10:09;;;;;;;12.80;10.07;;;12.40;63.40;;;;;;5071611;28;20657;-52
2021/03/26 03:12:38;;;;;;;10.13;9.10;;;12.50;62.70;;;;;;5071957;28;20668;-52
2021/03/26 03:15:08;;;;;;;13.73;9.77;;;12.50;62.80;;;;;;5071551;28;20625;-51
2021/03/26 03:17:36;;;;;;;12.43;10.03;;;12.50;62.50;;;;;;5077265;28;20634;-52
2021/03/26 03:20:07;;;;;;;13.13;10.40;;;12.40;62.60;;;;;;5091290;28;20654;-51
2021/03/26 03:22:43;;;;;;;12.23;10.13;;;12.50;62.80;;;;;;5090325;28;20648;-52
2021/03/26 03:25:12;;;;;;;13.40;10.53;;;12.50;62.70;;;;;;5091598;28;20685;-53
2021/03/26 03:27:41;;;;;;;17.23;11.53;;;12.50;62.80;;;;;;5086286;28;20683;-53
2021/03/26 03:30:19;;;;;;;12.00;10.83;;;12.60;62.80;;;;;;5071501;28;20616;-52
2021/03/26 03:32:52;;;;;;;14.73;10.87;;;12.60;62.70;;;;;;5071567;28;21167;-53
2021/03/26 03:35:22;;;;;;;18.10;13.57;;;12.60;63.50;;;;;;5071884;28;20649;-52
2021/03/26 03:37:57;;;;;;;18.60;11.77;;;12.60;62.60;;;;;;5071644;28;20747;-52
2021/03/26 03:40:26;;;;;;;16.50;10.93;;;12.60;62.60;;;;;;5071245;28;20717;-52
2021/03/26 03:42:59;;;;;;;13.17;10.77;;;12.60;62.80;;;;;;5071743;28;20790;-51
2021/03/26 03:45:28;;;;;;;14.43;11.23;;;12.50;62.80;;;;;;5079694;28;20665;-52
2021/03/26 03:47:57;;;;;;;14.10;11.37;;;12.50;63.00;;;;;;5091046;28;20701;-53
2021/03/26 03:50:25;;;;;;;17.17;13.17;;;12.50;63.10;;;;;;5090927;28;20622;-52
2021/03/26 03:52:56;;;;;;;12.20;10.13;;;12.50;63.60;;;;;;5091898;28;20624;-50
2021/03/26 03:55:25;;;;;;;13.23;11.17;;;12.50;63.80;;;;;;5082461;28;20663;-50
2021/03/26 03:57:57;;;;;;;15.00;11.37;;;12.50;64.60;;;;;;5071129;28;20692;-51
2021/03/26 04:00:25;;;;;;;17.00;11.80;;;12.50;63.80;;;;;;5080578;28;21005;-51
2021/03/26 04:02:55;;;;;;;14.47;11.67;;;12.50;63.60;;;;;;5072122;28;20684;-51
2021/03/26 04:05:25;;;;;;;15.10;11.23;;;12.50;63.60;;;;;;5081418;28;20630;-50
2021/03/26 04:07:55;;;;;;;21.40;12.10;;;12.50;63.60;;;;;;5090518;28;20680;-51
2021/03/26 04:10:22;;;;;;;19.40;12.07;;;12.50;63.90;;;;;;5091252;28;20653;-51
2021/03/26 04:12:49;;;;;;;20.43;12.53;;;12.40;64.00;;;;;;5089698;28;20656;-51
2021/03/26 04:15:20;;;;;;;23.73;12.13;;;12.40;64.30;;;;;;5091453;28;20656;-50
2021/03/26 04:17:48;;;;;;;16.03;11.90;;;12.30;64.40;;;;;;5090681;28;20688;-51
2021/03/26 04:20:21;;;;;;;15.33;13.67;;;12.30;64.60;;;;;;5090905;28;21220;-51
2021/03/26 04:22:51;;;;;;;16.30;12.77;;;12.30;65.00;;;;;;5090451;28;21219;-51
2021/03/26 04:25:20;;;;;;;16.23;13.17;;;12.30;65.00;;;;;;5079652;28;20655;-51
2021/03/26 04:27:49;;;;;;;15.70;12.90;;;12.30;65.10;;;;;;5083186;28;20679;-51
2021/03/26 04:30:19;;;;;;;16.77;12.73;;;12.30;65.10;;;;;;5091166;28;21218;-51
2021/03/26 04:32:46;;;;;;;21.27;13.93;;;12.30;65.30;;;;;;5091229;28;20652;-52
2021/03/26 04:35:13;;;;;;;20.50;14.57;;;12.30;65.40;;;;;;5091017;28;20644;-51
2021/03/26 04:37:43;;;;;;;16.13;12.70;;;12.30;65.40;;;;;;5090739;28;20657;-51
2021/03/26 04:40:11;;;;;;;16.73;13.90;;;12.30;66.60;;;;;;5072056;28;20998;-51
2021/03/26 04:42:42;;;;;;;18.70;13.50;;;12.30;66.00;;;;;;5070847;28;20692;-52
2021/03/26 04:45:14;;;;;;;16.60;13.03;;;12.30;66.10;;;;;;5070962;28;20660;-52
2021/03/26 04:47:45;;;;;;;21.97;13.77;;;12.30;66.20;;;;;;5070233;28;20699;-51
2021/03/26 04:50:14;;;;;;;16.37;13.47;;;12.30;66.10;;;;;;5070973;28;20640;-51
2021/03/26 04:52:43;;;;;;;15.50;13.30;;;12.30;66.30;;;;;;5074324;28;20625;-52
2021/03/26 04:55:15;;;;;;;16.73;12.27;;;12.20;67.00;;;;;;5075247;28;21020;-52
2021/03/26 04:57:43;;;;;;;18.10;13.87;;;12.20;66.70;;;;;;5086274;28;20691;-52
2021/03/26 05:00:11;;;;;;;18.57;14.33;;;12.20;67.10;;;;;;5092423;28;20635;-52
2021/03/26 05:02:41;;;;;;;16.87;12.40;;;12.20;67.40;;;;;;5093525;28;20671;-52
2021/03/26 05:05:09;;;;;;;18.40;12.97;;;12.20;67.40;;;;;;5094210;28;20994;-52
2021/03/26 05:07:38;;;;;;;16.97;13.20;;;12.20;67.60;;;;;;5093846;28;21196;-52
2021/03/26 05:10:08;;;;;;;17.17;13.27;;;12.20;67.50;;;;;;5094293;28;20705;-52
2021/03/26 05:12:35;;;;;;;20.13;14.87;;;12.20;67.60;;;;;;5080590;28;20651;-52
2021/03/26 05:15:05;;;;;;;18.00;15.27;;;12.20;68.40;;;;;;5082955;28;20664;-52
2021/03/26 05:17:35;;;;;;;15.93;12.40;;;12.20;68.00;;;;;;5093818;28;20679;-52
2021/03/26 05:20:06;;;;;;;19.00;14.60;;;12.20;68.20;;;;;;5094082;28;21192;-52
2021/03/26 05:22:39;;;;;;;16.70;14.90;;;12.20;68.10;;;;;;5094235;28;20612;-52
2021/03/26 05:25:10;;;;;;;21.60;14.40;;;12.20;68.00;;;;;;5082600;28;20653;-52
2021/03/26 05:27:36;;;;;;;20.70;14.70;;;12.30;68.30;;;;;;5085852;28;20658;-52
2021/03/26 05:30:04;;;;;;;17.03;13.70;;;12.30;68.20;;;;;;5082740;28;20612;-52
2021/03/26 05:32:35;;;;;;;18.90;14.20;;;12.30;68.30;;;;;;5093736;28;20660;-53
2021/03/26 05:35:03;;;;;;;15.77;13.40;;;12.30;68.50;;;;;;5093683;28;20632;-53
2021/03/26 05:37:31;;;;;;;17.10;14.43;;;12.30;68.60;;;;;;5093397;28;21039;-51
2021/03/26 05:40:01;;;;;;;19.50;14.87;;;12.30;68.90;;;;;;5093230;28;21040;-51
2021/03/26 05:42:44;;;;;;;16.03;13.90;;;12.30;68.80;;;;;;5092633;28;20620;-51
2021/03/26 05:45:19;;;;;;;19.50;15.27;;;12.30;69.00;;;;;;5091550;28;20668;-52
2021/03/26 05:48:16;;;;;;;15.83;13.57;;;12.30;69.10;;;;;;5093058;28;20717;-51
2021/03/26 05:50:49;;;;;;;21.60;15.90;;;12.40;69.00;;;;;;5093567;28;20645;-52
2021/03/26 05:53:24;;;;;;;16.10;14.17;;;12.40;68.70;;;;;;5093816;28;20742;-52
2021/03/26 05:55:54;;;;;;;20.10;15.77;;;12.40;68.80;;;;;;5093493;28;20625;-52
2021/03/26 05:58:41;;;;;;;16.50;13.30;;;12.50;69.00;;;;;;5093200;28;21088;-52
2021/03/26 06:01:23;;;;;;;23.97;14.47;;;12.40;68.70;;;;;;5082009;28;20632;-52
2021/03/26 06:04:05;;;;;;;15.13;12.10;;;12.40;69.60;;;;;;5077576;28;20695;-52
2021/03/26 06:07:14;;;;;;;18.87;13.43;;;12.30;69.00;;;;;;5082616;28;20662;-53
2021/03/26 06:09:55;;;;;;;12.70;11.40;;;12.30;69.30;;;;;;5082898;28;20719;-53
2021/03/26 06:13:03;;;;;;;14.93;13.33;;;12.30;69.20;;;;;;5081383;28;20639;-53
2021/03/26 06:15:41;;;;;;;17.00;14.57;;;12.30;69.20;;;;;;5080281;28;20703;-53
2021/03/26 06:18:40;;;;;;;16.93;12.73;;;12.30;69.30;;;;;;5084582;28;21035;-52
2021/03/26 06:21:16;;;;;;;16.70;13.47;;;12.40;69.80;;;;;;5062795;28;20625;-52
2021/03/26 06:24:00;;;;;;;14.73;13.17;;;12.40;69.70;;;;;;5070562;28;20732;-50
2021/03/26 06:26:47;;;;;;;14.83;12.27;;;12.50;70.00;;;;;;5091003;28;20624;-51
2021/03/26 06:29:20;;;;;;;18.60;14.80;;;12.50;70.00;;;;;;5090414;28;20645;-51
2021/03/26 06:32:29;;;;;;;17.27;14.00;;;12.50;69.90;;;;;;5088880;28;20616;-51
2021/03/26 06:35:20;;;;;;;16.70;13.33;;;12.60;70.60;;;;;;5080623;28;20632;-55
2021/03/26 06:38:18;;;;;;;17.60;14.17;;;12.70;69.80;;;;;;5079873;28;20696;-52
2021/03/26 06:41:02;;;;;;;18.63;14.17;;;12.70;69.40;;;;;;5067723;28;20636;-53
2021/03/26 06:43:50;;;;;;;14.77;12.33;;;12.80;69.20;;;;;;5072426;28;20732;-52
2021/03/26 06:46:23;;;;;;;16.43;14.43;;;12.80;68.90;;;;;;5048723;28;20661;-52
2021/03/26 06:48:59;;;;;;;14.90;13.20;;;12.80;69.70;;;;;;5071786;28;21197;-51
2021/03/26 06:51:44;;;;;;;22.20;14.33;;;12.80;68.90;;;;;;5074771;28;20623;-51
2021/03/26 06:54:19;;;;;;;17.73;14.13;;;12.80;69.00;;;;;;5068484;28;20625;-51
2021/03/26 06:57:05;;;;;;;18.43;13.47;;;12.90;69.10;;;;;;5084396;28;20655;-51
2021/03/26 06:59:47;;;;;;;15.20;12.50;;;12.90;69.00;;;;;;5088201;28;21038;-51
2021/03/26 07:02:34;;;;;;;15.50;14.00;;;12.90;69.00;;;;;;5081904;28;20677;-51
2021/03/26 07:05:26;;;;;;;16.50;13.83;;;12.90;68.90;;;;;;5081662;28;20690;-52
2021/03/26 07:08:15;;;;;;;17.50;14.00;;;12.90;69.40;;;;;;5073466;28;20706;-52
2021/03/26 07:10:51;;;;;;;19.03;15.53;;;12.90;69.10;;;;;;5081529;28;20705;-51
2021/03/26 07:13:43;;;;;;;17.33;15.63;;;13.00;69.30;;;;;;5081588;28;20655;-52
2021/03/26 07:16:29;;;;;;;17.17;15.27;;;13.00;69.20;;;;;;5079258;28;20676;-52
2021/03/26 07:19:11;;;;;;;17.43;15.57;;;13.10;69.00;;;;;;5072039;28;20683;-52
2021/03/26 07:21:56;;;;;;;16.23;14.30;;;13.10;69.20;;;;;;5082383;28;21106;-52
2021/03/26 07:24:40;;;;;;;15.20;13.53;;;13.10;68.90;;;;;;5080571;28;21057;-52
2021/03/26 07:27:14;;;;;;;18.50;14.40;;;13.20;68.80;;;;;;5084990;28;20625;-52
2021/03/26 07:29:48;;;;;;;16.87;14.43;;;13.20;68.50;;;;;;5090657;28;20668;-52
2021/03/26 07:32:30;;;;;;;15.80;13.97;;;13.30;69.20;;;;;;5085802;28;20621;-53
2021/03/26 07:35:14;;;;;;;16.13;13.93;;;13.50;68.70;;;;;;5070396;28;20690;-52
2021/03/26 07:37:47;;;;;;;18.23;14.50;;;13.70;67.80;;;;;;5071040;28;20679;-52
2021/03/26 07:40:31;;;;;;;20.80;15.80;;;13.90;66.90;;;;;;5070283;28;21130;-52
2021/03/26 07:43:01;;;;;;;21.30;14.80;;;14.00;65.60;;;;;;5070711;28;20651;-51
2021/03/26 07:45:36;;;;;;;19.90;14.87;;;14.10;65.20;;;;;;5085016;28;21335;-52
2021/03/26 07:48:26;;;;;;;17.77;15.47;;;14.10;66.00;;;;;;5089050;28;20721;-53
2021/03/26 07:50:57;;;;;;;18.57;12.43;;;14.20;65.20;;;;;;5073084;28;20617;-52
2021/03/26 07:53:44;;;;;;;15.17;13.80;;;14.40;64.20;;;;;;5075571;28;20636;-52
2021/03/26 07:56:22;;;;;;;16.23;13.73;;;14.40;63.90;;;;;;5085938;28;20616;-52
2021/03/26 07:59:08;;;;;;;17.50;12.80;;;14.60;64.10;;;;;;5086000;28;20679;-52
2021/03/26 08:01:42;;;;;;;17.07;12.90;;;14.90;62.70;;;;;;5089737;28;21035;-53
2021/03/26 08:04:11;;;;;;;16.77;15.00;;;15.20;61.70;;;;;;5090014;28;20688;-53
2021/03/26 08:07:18;;;;;;;15.57;13.80;;;15.50;60.60;;;;;;5090510;28;20648;-52
2021/03/26 08:10:07;;;;;;;18.37;14.87;;;15.60;59.50;;;;;;5060207;28;21082;-52
2021/03/26 08:12:40;;;;;;;17.47;13.80;;;15.60;59.00;;;;;;5091176;28;20636;-52
2021/03/26 08:15:19;;;;;;;17.67;15.67;;;15.60;58.90;;;;;;5090179;28;20677;-52
2021/03/26 08:17:52;;;;;;;16.87;15.07;;;15.40;58.60;;;;;;5090148;28;20683;-51
2021/03/26 08:20:26;;;;;;;18.67;15.40;;;15.30;59.10;;;;;;5090091;28;20652;-51
2021/03/26 08:23:00;;;;;;;20.47;16.97;;;15.30;59.10;;;;;;5091512;28;20681;-52
2021/03/26 08:25:37;;;;;;;18.57;16.63;;;15.20;59.20;;;;;;5091728;28;21049;-51
2021/03/26 08:28:10;;;;;;;17.10;15.40;;;15.20;59.20;;;;;;5093689;28;20669;-52
2021/03/26 08:30:44;;;;;;;19.90;16.00;;;15.30;59.60;;;;;;5094263;28;20624;-52
2021/03/26 08:33:31;;;;;;;21.97;17.80;;;15.40;58.90;;;;;;5094408;28;20669;-52
2021/03/26 08:36:33;;;;;;;17.37;15.40;;;15.50;58.70;;;;;;5081878;28;21253;-52
2021/03/26 08:39:14;;;;;;;17.23;15.60;;;15.50;58.40;;;;;;5031165;28;20696;-52
2021/03/26 08:41:43;;;;;;;23.00;19.60;;;15.70;58.40;;;;;;5087099;28;20668;-52
2021/03/26 08:44:14;;;;;;;24.00;18.40;;;15.90;57.50;;;;;;5093767;28;20744;-51
2021/03/26 08:46:43;;;;;;;20.23;17.73;;;16.00;57.10;;;;;;5093979;28;20674;-53
2021/03/26 08:49:14;;;;;;;19.47;17.50;;;16.10;57.00;;;;;;5093377;28;21307;-52
2021/03/26 08:52:02;;;;;;;16.40;13.57;;;16.20;56.60;;;;;;5094032;28;20661;-52
2021/03/26 08:54:42;;;;;;;22.60;17.73;;;16.20;56.30;;;;;;5107979;28;21187;-52
2021/03/26 08:57:14;;;;;;;17.27;15.57;;;16.10;56.40;;;;;;5114126;28;20619;-52
2021/03/26 08:59:47;;;;;;;23.10;18.43;;;15.90;56.50;;;;;;5113659;28;20659;-53
2021/03/26 09:03:00;;;;;;;21.27;19.00;;;15.90;57.30;;;;;;5114452;28;20634;-53
2021/03/26 09:05:44;;;;;;;19.80;16.60;;;16.10;56.50;;;;;;5114515;28;21055;-53
2021/03/26 09:08:23;;;;;;;19.80;17.77;;;16.30;56.10;;;;;;5112213;28;20655;-53
2021/03/26 09:11:22;;;;;;;22.37;16.67;;;16.50;55.80;;;;;;5114064;28;21191;-53
2021/03/26 09:14:07;;;;;;;19.90;17.90;;;16.80;54.50;;;;;;5113542;28;20643;-53
2021/03/26 09:16:35;;;;;;;20.77;18.37;;;16.90;54.00;;;;;;5110843;28;20665;-53
2021/03/26 09:19:05;;;;;;;19.90;17.83;;;16.90;53.40;;;;;;5112072;28;20655;-53
2021/03/26 09:21:43;;;;;;;20.20;18.40;;;16.80;53.50;;;;;;5113487;28;21135;-52
2021/03/26 09:24:40;;;;;;;20.80;17.77;;;16.90;53.50;;;;;;5102339;28;20741;-53
2021/03/26 09:27:29;;;;;;;19.90;18.00;;;17.00;53.20;;;;;;5093153;28;21248;-53
2021/03/26 09:30:06;;;;;;;15.90;14.27;;;17.00;52.90;;;;;;5087816;28;20670;-53
2021/03/26 09:32:35;;;;;;;19.60;15.93;;;17.00;52.90;;;;;;5093182;28;20733;-53
2021/03/26 09:35:08;;;;;;;17.17;15.23;;;16.70;53.10;;;;;;5093290;28;20624;-51
2021/03/26 09:37:37;;;;;;;16.10;14.43;;;16.60;53.30;;;;;;5091639;28;20624;-53
2021/03/26 09:40:32;;;;;;;22.87;15.70;;;16.70;53.50;;;;;;5131542;27;20715;-53
2021/03/26 09:43:19;;;;;;;17.83;16.13;;;16.60;52.90;;;;;;5131701;27;20663;-55
2021/03/26 09:45:53;;;;;;;18.60;16.27;;;16.50;53.20;;;;;;5132652;27;20983;-54
2021/03/26 09:49:01;;;;;;;17.63;16.03;;;16.50;53.60;;;;;;5132242;27;20650;-53
2021/03/26 09:51:53;;;;;;;16.10;12.57;;;16.50;53.20;;;;;;5121626;27;21132;-54
2021/03/26 09:54:25;;;;;;;18.00;16.30;;;16.60;56.20;;;;;;5099683;28;21453;-55
2021/03/26 09:57:01;;;;;;;19.70;16.87;;;17.10;54.20;;;;;;5109921;28;20684;-55
2021/03/26 09:59:34;;;;;;;20.23;16.37;;;17.50;51.80;;;;;;5110677;27;20665;-54
2021/03/26 10:02:05;;;;;;;17.60;14.30;;;17.60;52.40;;;;;;5112967;28;20668;-54
2021/03/26 10:04:35;;;;;;;17.20;15.50;;;17.90;51.60;;;;;;5111578;28;20711;-54
2021/03/26 10:07:13;;;;;;;19.53;17.53;;;18.20;50.60;;;;;;5111060;28;20695;-52
2021/03/26 10:09:43;;;;;;;19.33;15.70;;;18.30;50.00;;;;;;5111653;28;20680;-54
2021/03/26 10:12:15;;;;;;;20.17;18.07;;;18.30;49.00;;;;;;5111632;28;20658;-55
2021/03/26 10:14:49;;;;;;;16.13;14.70;;;18.30;48.90;;;;;;5110188;28;20747;-52
2021/03/26 10:17:48;;;;;;;14.10;12.80;;;18.40;48.80;;;;;;5113252;28;20639;-54
2021/03/26 10:20:24;;;;;;;15.90;14.40;;;18.60;48.60;;;;;;5108961;28;20651;-52
2021/03/26 10:22:53;;;;;;;19.70;16.20;;;18.70;47.50;;;;;;5109900;28;21041;-51
2021/03/26 10:25:30;;;;;;;17.03;12.40;;;18.90;47.80;;;;;;5096659;28;20670;-52
2021/03/26 10:28:04;;;;;;;15.77;14.20;;;19.20;46.60;;;;;;5112737;28;20726;-51
2021/03/26 10:30:33;;;;;;;17.37;13.63;;;19.10;45.70;;;;;;5107827;28;20646;-54
2021/03/26 10:33:05;;;;;;;15.17;13.83;;;19.20;46.00;;;;;;5111954;28;21171;-52
2021/03/26 10:35:38;;;;;;;14.37;12.97;;;19.40;45.20;;;;;;5113126;28;20680;-53
2021/03/26 10:38:10;;;;;;;12.63;11.43;;;19.70;43.80;;;;;;5109960;28;20643;-51
2021/03/26 10:40:39;;;;;;;13.03;11.80;;;19.70;43.00;;;;;;5112261;28;21175;-51
2021/03/26 10:43:11;;;;;;;13.53;12.33;;;19.80;42.80;;;;;;5111489;28;20691;-52
2021/03/26 10:46:00;;;;;;;14.17;12.03;;;20.20;41.90;;;;;;5111806;28;20655;-55
2021/03/26 10:48:32;;;;;;;14.30;13.20;;;19.70;41.50;;;;;;5105760;28;20663;-53
2021/03/26 10:51:37;;;;;;;14.20;12.93;;;19.40;41.50;;;;;;5110060;28;20785;-53
2021/03/26 10:54:08;;;;;;;12.50;11.37;;;19.60;42.40;;;;;;5111556;28;20615;-54
2021/03/26 10:56:57;;;;;;;9.23;8.43;;;20.10;42.10;;;;;;5110196;28;21208;-52
2021/03/26 10:59:39;;;;;;;10.80;9.80;;;20.50;40.00;;;;;;5109769;28;20651;-55
2021/03/26 11:02:40;;;;;;;12.53;11.53;;;20.70;39.40;;;;;;5111263;28;20746;-53
2021/03/26 11:05:15;;;;;;;12.83;12.00;;;20.90;38.40;;;;;;5109395;28;20701;-53
2021/03/26 11:07:44;;;;;;;8.17;7.43;;;21.30;37.20;;;;;;5110894;28;20623;-54
2021/03/26 11:10:12;;;;;;;9.10;8.10;;;21.50;36.70;;;;;;5111536;28;20684;-54
2021/03/26 11:12:41;;;;;;;12.80;11.47;;;21.00;37.30;;;;;;5110741;28;20680;-53
2021/03/26 11:15:10;;;;;;;11.77;10.60;;;20.50;39.20;;;;;;5110726;28;21190;-55
2021/03/26 11:17:41;;;;;;;14.30;10.80;;;20.40;39.20;;;;;;5110358;28;20631;-53
2021/03/26 11:20:25;;;;;;;8.50;7.60;;;20.50;39.20;;;;;;5110165;28;20626;-52
2021/03/26 11:22:55;;;;;;;10.03;9.00;;;20.60;38.50;;;;;;5109917;28;20619;-52
2021/03/26 11:25:26;;;;;;;9.47;8.60;;;20.60;37.90;;;;;;5090121;28;20651;-53
2021/03/26 11:27:54;;;;;;;9.47;8.67;;;20.30;38.60;;;;;;5089137;28;20681;-54
2021/03/26 11:30:38;;;;;;;10.67;9.80;;;20.20;38.40;;;;;;5089956;28;20632;-52
2021/03/26 11:33:16;;;;;;;9.00;8.30;;;20.40;38.90;;;;;;5090276;28;20972;-54
2021/03/26 11:35:44;;;;;;;9.00;8.10;;;20.40;38.40;;;;;;5091339;28;20616;-53
2021/03/26 11:38:14;;;;;;;11.97;10.70;;;20.50;38.00;;;;;;5090330;28;20659;-52
2021/03/26 11:40:43;;;;;;;10.87;9.87;;;20.40;38.20;;;;;;5088654;28;20708;-53
2021/03/26 11:43:11;;;;;;;10.63;9.63;;;20.30;38.30;;;;;;5090282;28;20654;-53
2021/03/26 11:45:41;;;;;;;11.60;10.50;;;20.50;38.40;;;;;;5089495;28;20656;-53
2021/03/26 11:48:34;;;;;;;14.80;12.10;;;20.60;38.20;;;;;;5089268;28;20717;-53
2021/03/26 11:51:07;;;;;;;14.10;11.13;;;20.60;38.60;;;;;;5087191;28;20632;-55
2021/03/26 11:53:36;;;;;;;10.23;9.33;;;20.50;38.60;;;;;;5091495;28;20639;-55
2021/03/26 11:56:23;;;;;;;10.80;9.70;;;20.40;38.90;;;;;;5089732;28;20741;-54
2021/03/26 11:59:06;;;;;;;12.83;11.83;;;20.40;39.10;;;;;;5079835;28;20664;-56
2021/03/26 12:01:36;;;;;;;10.70;9.60;;;20.40;39.30;;;;;;5095532;28;20651;-55
2021/03/26 12:04:07;;;;;;;10.23;9.20;;;20.60;39.10;;;;;;5096550;28;20958;-54
2021/03/26 12:06:36;;;;;;;10.77;9.77;;;20.70;37.90;;;;;;5096236;28;20643;-55
2021/03/26 12:09:07;;;;;;;10.10;9.20;;;20.70;37.80;;;;;;5096326;28;21073;-52
2021/03/26 12:11:54;;;;;;;13.27;11.40;;;20.60;38.10;;;;;;5097316;28;20682;-53
2021/03/26 12:14:23;;;;;;;13.07;10.40;;;20.50;38.30;;;;;;5097158;28;20628;-53
2021/03/26 12:16:53;;;;;;;10.63;9.73;;;20.50;38.60;;;;;;5097499;28;20631;-54
2021/03/26 12:19:21;;;;;;;10.80;9.70;;;20.60;38.80;;;;;;5095559;28;20690;-53
2021/03/26 12:21:56;;;;;;;12.10;10.87;;;20.60;38.40;;;;;;5098242;28;20739;-53
2021/03/26 12:24:27;;;;;;;11.60;10.60;;;20.60;38.10;;;;;;5109266;28;20630;-53
2021/03/26 12:27:02;;;;;;;9.80;8.90;;;20.60;38.00;;;;;;5116628;27;20658;-53
2021/03/26 12:29:31;;;;;;;8.60;7.70;;;20.80;37.40;;;;;;5114868;27;20767;-54
2021/03/26 12:32:11;;;;;;;19.63;9.43;;;20.80;37.30;;;;;;5097273;28;20620;-55
2021/03/26 12:35:00;;;;;;;11.13;9.70;;;20.50;37.40;;;;;;5095263;28;20619;-53
2021/03/26 12:37:32;;;;;;;10.47;9.47;;;20.80;37.50;;;;;;5092415;28;20632;-52
2021/03/26 12:40:05;;;;;;;10.87;9.83;;;21.20;37.20;;;;;;5095410;28;20682;-54
2021/03/26 12:42:37;;;;;;;11.10;10.10;;;21.70;36.80;;;;;;5095390;28;20636;-55
2021/03/26 12:45:05;;;;;;;10.40;9.40;;;21.80;35.70;;;;;;5096064;28;20652;-53
2021/03/26 12:47:35;;;;;;;11.37;10.33;;;21.70;36.00;;;;;;5095062;28;20624;-55
2021/03/26 12:50:14;;;;;;;11.47;10.37;;;21.60;36.20;;;;;;5096463;28;21016;-56
2021/03/26 12:53:00;;;;;;;9.10;8.40;;;21.50;36.40;;;;;;5093454;28;20743;-53
2021/03/26 12:55:36;;;;;;;15.83;10.33;;;21.60;36.20;;;;;;5093694;28;20639;-54
2021/03/26 12:58:24;;;;;;;9.30;8.50;;;21.60;35.80;;;;;;5095720;28;20771;-55
2021/03/26 13:00:55;;;;;;;11.40;10.30;;;21.50;35.70;;;;;;5112349;28;20615;-55
2021/03/26 13:03:27;;;;;;;10.10;9.13;;;21.60;35.70;;;;;;5114946;28;20642;-56
2021/03/26 13:06:01;;;;;;;16.17;10.37;;;21.80;35.00;;;;;;5107339;27;21065;-53
2021/03/26 13:08:30;;;;;;;12.53;10.67;;;21.70;35.10;;;;;;5116006;27;21236;-52